createdAt,value
2016-08-11T00:00:44.379Z,0
2016-08-11T00:01:43.674Z,0
2016-08-11T00:02:43.668Z,0
2016-08-11T00:03:43.656Z,0
2016-08-11T00:04:43.652Z,0
2016-08-11T00:05:43.640Z,0
2016-08-11T00:06:43.633Z,0
2016-08-11T00:07:43.630Z,0
2016-08-11T00:08:43.618Z,0
2016-08-11T00:09:43.609Z,0
2016-08-11T00:10:43.613Z,0
2016-08-11T00:11:43.595Z,0
2016-08-11T00:12:43.591Z,0
2016-08-11T00:13:43.576Z,0
2016-08-11T00:14:43.583Z,0
2016-08-11T00:15:43.568Z,0
2016-08-11T00:16:43.552Z,0
2016-08-11T00:17:44.251Z,0
2016-08-11T00:18:43.544Z,0
2016-08-11T00:20:43.520Z,0
2016-08-11T00:21:44.376Z,0
2016-08-11T00:22:44.411Z,0
2016-08-11T00:24:58.410Z,0
2016-08-11T00:25:44.198Z,0
2016-08-11T00:26:43.638Z,0
2016-08-11T00:27:43.469Z,0
2016-08-11T00:28:43.465Z,0
2016-08-11T00:29:43.453Z,0
2016-08-11T00:30:45.458Z,0
2016-08-11T00:32:44.349Z,0
2016-08-11T00:33:44.182Z,0
2016-08-11T00:34:43.777Z,0
2016-08-11T00:35:44.167Z,0
2016-08-11T00:36:44.007Z,0
2016-08-11T00:37:43.600Z,0
2016-08-11T00:38:43.378Z,0
2016-08-11T00:39:43.372Z,0
2016-08-11T00:40:43.372Z,0
2016-08-11T00:41:44.069Z,0
2016-08-11T00:42:45.252Z,0
2016-08-11T00:43:46.179Z,0
2016-08-11T00:44:47.216Z,0
2016-08-11T00:45:46.270Z,0
2016-08-11T00:46:44.299Z,0
2016-08-11T00:47:44.841Z,0
2016-08-11T00:48:44.303Z,0
2016-08-11T00:49:43.299Z,0
2016-08-11T00:50:43.304Z,0
2016-08-11T00:53:45.813Z,0
2016-08-11T00:54:45.360Z,0
2016-08-11T00:55:43.743Z,0
2016-08-11T00:56:44.648Z,0
2016-08-11T00:57:43.239Z,0
2016-08-11T00:58:43.505Z,0
2016-08-11T00:59:43.228Z,0
2016-08-11T01:00:43.233Z,0
2016-08-11T01:01:43.217Z,0
2016-08-11T01:02:43.208Z,0
2016-08-11T01:03:43.199Z,0
2016-08-11T01:04:43.197Z,0
2016-08-11T01:05:43.181Z,0
2016-08-11T01:06:43.874Z,0
2016-08-11T01:07:43.877Z,0
2016-08-11T01:08:43.150Z,0
2016-08-11T01:09:43.197Z,0
2016-08-11T01:10:43.142Z,0
2016-08-11T01:11:43.134Z,0
2016-08-11T01:12:43.131Z,0
2016-08-11T01:13:43.126Z,0
2016-08-11T01:14:43.134Z,0
2016-08-11T01:15:43.109Z,0
2016-08-11T01:16:43.104Z,0
2016-08-11T01:17:43.089Z,0
2016-08-11T01:18:43.092Z,0
2016-08-11T01:19:43.083Z,0
2016-08-11T01:20:43.070Z,0
2016-08-11T01:21:43.058Z,0
2016-08-11T01:22:43.057Z,0
2016-08-11T01:23:43.039Z,0
2016-08-11T01:24:43.033Z,0
2016-08-11T01:25:43.022Z,0
2016-08-11T01:26:43.011Z,0
2016-08-11T01:27:43.015Z,0
2016-08-11T01:28:42.996Z,0
2016-08-11T01:29:43.001Z,0
2016-08-11T01:30:43.678Z,0
2016-08-11T01:31:42.980Z,0
2016-08-11T01:32:42.984Z,0
2016-08-11T01:33:42.952Z,0
2016-08-11T01:34:42.949Z,0
2016-08-11T01:35:42.946Z,0
2016-08-11T01:36:42.940Z,0
2016-08-11T01:37:42.940Z,0
2016-08-11T01:38:42.927Z,0
2016-08-11T01:39:59.077Z,0
2016-08-11T01:40:43.785Z,0
2016-08-11T01:41:43.846Z,0
2016-08-11T01:42:43.704Z,0
2016-08-11T01:43:42.889Z,0
2016-08-11T01:44:43.902Z,0
2016-08-11T01:45:42.874Z,0
2016-08-11T01:46:42.859Z,0
2016-08-11T01:47:42.857Z,0
2016-08-11T01:48:59.911Z,0
2016-08-11T01:50:13.362Z,0
2016-08-11T01:50:43.324Z,0
2016-08-11T01:51:43.317Z,0
2016-08-11T01:52:42.813Z,0
2016-08-11T01:53:44.368Z,0
2016-08-11T01:54:42.789Z,0
2016-08-11T01:55:42.779Z,0
2016-08-11T01:56:42.777Z,0
2016-08-11T01:57:42.772Z,0
2016-08-11T01:58:42.780Z,0
2016-08-11T01:59:42.751Z,0
2016-08-11T02:00:45.105Z,0
2016-08-11T02:01:45.599Z,0
2016-08-11T02:02:47.155Z,0
2016-08-11T02:03:43.736Z,0
2016-08-11T02:04:43.328Z,0
2016-08-11T02:05:43.828Z,0
2016-08-11T02:06:42.697Z,0
2016-08-11T02:07:42.688Z,0
2016-08-11T02:08:42.685Z,0
2016-08-11T02:09:45.204Z,0
2016-08-11T02:10:45.312Z,0
2016-08-11T02:11:45.614Z,0
2016-08-11T02:12:45.871Z,0
2016-08-11T02:13:42.695Z,0
2016-08-11T02:14:43.560Z,0
2016-08-11T02:15:42.630Z,0
2016-08-11T02:16:42.624Z,0
2016-08-11T02:17:42.607Z,0
2016-08-11T02:18:42.601Z,0
2016-08-11T02:19:42.616Z,0
2016-08-11T02:20:42.586Z,0
2016-08-11T02:21:42.587Z,0
2016-08-11T02:22:43.269Z,0
2016-08-11T02:23:42.575Z,0
2016-08-11T02:24:42.551Z,0
2016-08-11T02:25:42.558Z,0
2016-08-11T02:26:42.546Z,0
2016-08-11T02:27:42.536Z,0
2016-08-11T02:29:42.519Z,0
2016-08-11T02:30:42.507Z,0
2016-08-11T02:31:42.498Z,0
2016-08-11T02:32:42.498Z,0
2016-08-11T02:33:42.489Z,0
2016-08-11T02:34:42.477Z,0
2016-08-11T02:35:42.464Z,0
2016-08-11T02:36:42.467Z,0
2016-08-11T02:37:42.452Z,0
2016-08-11T02:38:43.133Z,0
2016-08-11T02:39:42.425Z,0
2016-08-11T02:40:42.430Z,0
2016-08-11T02:42:45.860Z,0
2016-08-11T02:44:42.384Z,0
2016-08-11T02:45:42.400Z,0
2016-08-11T02:46:42.374Z,0
2016-08-11T02:47:43.072Z,0
2016-08-11T02:48:42.350Z,0
2016-08-11T02:49:43.070Z,0
2016-08-11T02:50:42.341Z,0
2016-08-11T02:51:42.355Z,0
2016-08-11T02:52:42.330Z,0
2016-08-11T02:53:42.315Z,0
2016-08-11T02:54:42.308Z,0
2016-08-11T02:55:42.316Z,0
2016-08-11T02:56:42.288Z,0
2016-08-11T02:57:57.204Z,0
2016-08-11T02:58:43.691Z,0
2016-08-11T02:59:42.940Z,0
2016-08-11T03:00:42.937Z,0
2016-08-11T03:01:57.166Z,0
2016-08-11T03:02:42.994Z,0
2016-08-11T03:03:42.240Z,0
2016-08-11T03:04:42.235Z,0
2016-08-11T03:05:42.221Z,0
2016-08-11T03:06:42.206Z,0
2016-08-11T03:07:57.369Z,0
2016-08-11T03:08:44.102Z,0
2016-08-11T03:10:43.632Z,0
2016-08-11T03:11:43.227Z,0
2016-08-11T03:12:42.865Z,0
2016-08-11T03:13:42.707Z,0
2016-08-11T03:14:42.150Z,0
2016-08-11T03:15:42.135Z,0
2016-08-11T03:16:42.140Z,0
2016-08-11T03:17:42.122Z,0
2016-08-11T03:19:44.700Z,0
2016-08-11T03:20:43.473Z,0
2016-08-11T03:21:44.154Z,0
2016-08-11T03:22:44.413Z,0
2016-08-11T03:23:43.317Z,0
2016-08-11T03:24:42.762Z,0
2016-08-11T03:25:42.045Z,0
2016-08-11T03:26:42.050Z,0
2016-08-11T03:27:43.426Z,0
2016-08-11T03:29:45.570Z,5
2016-08-11T03:30:43.149Z,5
2016-08-11T03:31:43.786Z,5
2016-08-11T03:32:43.114Z,5
2016-08-11T03:33:41.978Z,5
2016-08-11T03:34:42.081Z,5
2016-08-11T03:35:41.968Z,5
2016-08-11T03:36:41.958Z,10
2016-08-11T03:37:41.958Z,10
2016-08-11T03:38:41.939Z,10
2016-08-11T03:39:41.938Z,10
2016-08-11T03:40:41.929Z,10
2016-08-11T03:41:41.912Z,15
2016-08-11T03:42:41.930Z,15
2016-08-11T03:43:42.609Z,15
2016-08-11T03:44:41.893Z,20
2016-08-11T03:45:41.896Z,20
2016-08-11T03:46:41.884Z,20
2016-08-11T03:47:41.870Z,20
2016-08-11T03:48:41.865Z,25
2016-08-11T03:49:42.548Z,25
2016-08-11T03:50:41.864Z,25
2016-08-11T03:51:41.849Z,30
2016-08-11T03:52:46.386Z,30
2016-08-11T03:53:41.831Z,35
2016-08-11T03:54:41.805Z,35
2016-08-11T03:55:41.811Z,35
2016-08-11T03:56:42.490Z,40
2016-08-11T03:57:41.782Z,40
2016-08-11T03:58:41.779Z,45
2016-08-11T03:59:41.784Z,45
2016-08-11T04:00:41.761Z,50
2016-08-11T04:01:41.750Z,50
2016-08-11T04:02:41.745Z,50
2016-08-11T04:03:41.733Z,55
2016-08-11T04:04:41.721Z,55
2016-08-11T04:05:41.725Z,60
2016-08-11T04:06:41.706Z,60
2016-08-11T04:07:41.707Z,60
2016-08-11T04:08:41.692Z,60
2016-08-11T04:09:42.030Z,65
2016-08-11T04:10:41.675Z,70
2016-08-11T04:11:41.674Z,80
2016-08-11T04:12:41.656Z,75
2016-08-11T04:13:41.650Z,80
2016-08-11T04:14:41.642Z,85
2016-08-11T04:15:41.626Z,90
2016-08-11T04:16:42.023Z,90
2016-08-11T04:17:42.927Z,90
2016-08-11T04:18:41.718Z,90
2016-08-11T04:19:42.805Z,95
2016-08-11T04:20:42.500Z,110
2016-08-11T04:21:41.606Z,130
2016-08-11T04:22:42.327Z,135
2016-08-11T04:23:41.569Z,145
2016-08-11T04:24:41.562Z,150
2016-08-11T04:25:42.201Z,150
2016-08-11T04:26:42.405Z,150
2016-08-11T04:27:57.208Z,160
2016-08-11T04:28:42.510Z,165
2016-08-11T04:29:42.690Z,170
2016-08-11T04:30:41.865Z,175
2016-08-11T04:31:41.512Z,180
2016-08-11T04:32:41.514Z,185
2016-08-11T04:33:41.507Z,195
2016-08-11T04:34:41.488Z,200
2016-08-11T04:35:41.493Z,210
2016-08-11T04:36:41.488Z,215
2016-08-11T04:37:43.667Z,220
2016-08-11T04:38:43.176Z,230
2016-08-11T04:39:42.657Z,235
2016-08-11T04:40:42.644Z,240
2016-08-11T04:41:42.365Z,245
2016-08-11T04:42:41.583Z,250
2016-08-11T04:43:42.029Z,260
2016-08-11T04:44:41.438Z,265
2016-08-11T04:45:41.436Z,275
2016-08-11T04:46:43.271Z,285
2016-08-11T04:47:45.408Z,290
2016-08-11T04:48:43.609Z,300
2016-08-11T04:49:41.951Z,305
2016-08-11T04:50:42.127Z,310
2016-08-11T04:51:41.743Z,320
2016-08-11T04:52:41.414Z,330
2016-08-11T04:53:41.411Z,330
2016-08-11T04:54:41.413Z,340
2016-08-11T04:55:41.415Z,345
2016-08-11T04:56:41.404Z,355
2016-08-11T04:57:41.402Z,360
2016-08-11T04:58:41.405Z,365
2016-08-11T04:59:42.117Z,375
2016-08-11T05:00:41.396Z,385
2016-08-11T05:01:41.396Z,400
2016-08-11T05:02:41.399Z,400
2016-08-11T05:03:41.393Z,410
2016-08-11T05:04:41.400Z,415
2016-08-11T05:05:41.402Z,420
2016-08-11T05:06:41.398Z,425
2016-08-11T05:07:41.405Z,435
2016-08-11T05:08:41.408Z,440
2016-08-11T05:09:41.409Z,450
2016-08-11T05:10:41.407Z,465
2016-08-11T05:11:41.407Z,475
2016-08-11T05:12:41.412Z,490
2016-08-11T05:13:41.402Z,505
2016-08-11T05:14:41.410Z,505
2016-08-11T05:15:41.407Z,510
2016-08-11T05:16:41.417Z,520
2016-08-11T05:17:41.402Z,535
2016-08-11T05:18:41.419Z,540
2016-08-11T05:19:41.422Z,550
2016-08-11T05:20:41.409Z,565
2016-08-11T05:21:41.426Z,580
2016-08-11T05:22:41.425Z,585
2016-08-11T05:23:41.430Z,600
2016-08-11T05:24:41.425Z,615
2016-08-11T05:25:42.134Z,635
2016-08-11T05:26:41.438Z,650
2016-08-11T05:27:41.436Z,655
2016-08-11T05:28:41.450Z,660
2016-08-11T05:29:41.469Z,660
2016-08-11T05:30:41.455Z,660
2016-08-11T05:31:41.465Z,660
2016-08-11T05:32:41.462Z,670
2016-08-11T05:33:41.475Z,680
2016-08-11T05:34:43.784Z,695
2016-08-11T05:36:42.067Z,735
2016-08-11T05:37:56.917Z,745
2016-08-11T05:38:42.156Z,760
2016-08-11T05:39:42.074Z,795
2016-08-11T05:40:41.515Z,820
2016-08-11T05:41:42.226Z,840
2016-08-11T05:42:41.528Z,840
2016-08-11T05:43:43.345Z,840
2016-08-11T05:45:42.156Z,770
2016-08-11T05:46:41.613Z,835
2016-08-11T05:47:41.959Z,450
2016-08-11T05:48:41.581Z,545
2016-08-11T05:49:41.584Z,805
2016-08-11T05:50:41.603Z,845
2016-08-11T05:51:41.613Z,780
2016-08-11T05:52:41.603Z,915
2016-08-11T05:53:42.321Z,940
2016-08-11T05:54:41.627Z,945
2016-08-11T05:55:44.512Z,960
2016-08-11T05:56:43.290Z,975
2016-08-11T05:57:43.378Z,980
2016-08-11T05:58:41.945Z,1000
2016-08-11T05:59:42.231Z,1010
2016-08-11T06:00:41.679Z,1010
2016-08-11T06:01:41.692Z,1015
2016-08-11T06:02:41.705Z,1030
2016-08-11T06:03:41.722Z,1030
2016-08-11T06:05:45.511Z,1040
2016-08-11T06:06:44.591Z,1045
2016-08-11T06:07:43.583Z,1060
2016-08-11T06:08:42.217Z,1065
2016-08-11T06:09:41.877Z,1080
2016-08-11T06:10:41.772Z,1110
2016-08-11T06:11:42.061Z,1110
2016-08-11T06:12:41.790Z,1110
2016-08-11T06:13:41.802Z,1115
2016-08-11T06:14:41.812Z,1120
2016-08-11T06:15:41.823Z,1125
2016-08-11T06:16:41.832Z,1130
2016-08-11T06:17:41.844Z,1145
2016-08-11T06:18:41.851Z,1170
2016-08-11T06:19:41.864Z,1180
2016-08-11T06:20:41.871Z,1200
2016-08-11T06:21:41.876Z,1220
2016-08-11T06:22:41.897Z,1235
2016-08-11T06:23:41.908Z,1250
2016-08-11T06:24:41.919Z,1255
2016-08-11T06:25:41.936Z,1260
2016-08-11T06:26:41.936Z,1265
2016-08-11T06:27:41.951Z,1280
2016-08-11T06:28:41.960Z,1285
2016-08-11T06:29:41.970Z,1315
2016-08-11T06:30:41.992Z,1325
2016-08-11T06:31:45.034Z,1350
2016-08-11T06:32:42.013Z,1355
2016-08-11T06:33:42.015Z,1375
2016-08-11T06:34:42.028Z,1395
2016-08-11T06:35:42.044Z,1415
2016-08-11T06:36:42.048Z,1425
2016-08-11T06:37:42.759Z,1435
2016-08-11T06:38:42.072Z,1435
2016-08-11T06:39:42.085Z,1445
2016-08-11T06:40:42.109Z,1445
2016-08-11T06:41:42.114Z,1455
2016-08-11T06:42:42.122Z,1475
2016-08-11T06:43:42.140Z,1500
2016-08-11T06:44:42.151Z,1535
2016-08-11T06:45:42.170Z,1545
2016-08-11T06:46:42.189Z,1575
2016-08-11T06:47:42.186Z,1605
2016-08-11T06:48:42.197Z,1635
2016-08-11T06:49:42.209Z,1650
2016-08-11T06:50:42.235Z,1685
2016-08-11T06:51:42.229Z,1685
2016-08-11T06:52:42.259Z,1695
2016-08-11T06:53:42.263Z,1705
2016-08-11T06:54:42.273Z,1710
2016-08-11T06:55:42.290Z,1720
2016-08-11T06:56:42.305Z,1735
2016-08-11T06:57:42.310Z,1770
2016-08-11T06:58:42.321Z,1815
2016-08-11T06:59:42.334Z,1865
2016-08-11T07:00:42.362Z,1880
2016-08-11T07:01:42.364Z,1920
2016-08-11T07:02:42.388Z,2025
2016-08-11T07:03:42.394Z,1405
2016-08-11T07:04:42.420Z,2030
2016-08-11T07:05:42.428Z,1125
2016-08-11T07:06:42.444Z,745
2016-08-11T07:07:42.455Z,1935
2016-08-11T07:08:42.464Z,1350
2016-08-11T07:09:42.506Z,1905
2016-08-11T07:10:42.494Z,1910
2016-08-11T07:11:42.518Z,1895
2016-08-11T07:12:42.529Z,1840
2016-08-11T07:14:46.789Z,1790
2016-08-11T07:15:44.469Z,1825
2016-08-11T07:16:43.662Z,1855
2016-08-11T07:17:44.562Z,1870
2016-08-11T07:18:42.630Z,1875
2016-08-11T07:19:42.652Z,1885
2016-08-11T07:20:42.729Z,1905
2016-08-11T07:21:42.659Z,1945
2016-08-11T07:22:44.795Z,1970
2016-08-11T07:24:43.695Z,2050
2016-08-11T07:25:43.441Z,2075
2016-08-11T07:26:44.706Z,2135
2016-08-11T07:27:42.759Z,2150
2016-08-11T07:28:42.762Z,1790
2016-08-11T07:29:42.776Z,2260
2016-08-11T07:30:42.784Z,1725
2016-08-11T07:31:42.809Z,2120
2016-08-11T07:32:42.824Z,2005
2016-08-11T07:33:42.847Z,825
2016-08-11T07:34:42.851Z,1780
2016-08-11T07:35:42.863Z,1780
2016-08-11T07:36:42.884Z,1790
2016-08-11T07:37:42.896Z,1790
2016-08-11T07:38:43.130Z,1780
2016-08-11T07:39:42.933Z,1775
2016-08-11T07:40:42.943Z,1765
2016-08-11T07:41:42.971Z,1770
2016-08-11T07:42:42.962Z,1775
2016-08-11T07:43:42.979Z,1805
2016-08-11T07:44:42.990Z,1835
2016-08-11T07:45:43.004Z,1880
2016-08-11T07:46:43.019Z,1920
2016-08-11T07:47:43.043Z,1975
2016-08-11T07:48:43.057Z,1985
2016-08-11T07:49:43.062Z,1960
2016-08-11T07:50:43.091Z,1930
2016-08-11T07:51:43.159Z,1905
2016-08-11T07:52:44.171Z,1895
2016-08-11T07:53:44.579Z,1950
2016-08-11T07:55:58.392Z,2745
2016-08-11T07:56:43.979Z,2860
2016-08-11T07:57:44.085Z,2310
2016-08-11T07:58:43.851Z,2865
2016-08-11T07:59:43.215Z,2880
2016-08-11T08:00:43.257Z,2900
2016-08-11T08:01:58.435Z,2880
2016-08-11T08:02:44.370Z,2895
2016-08-11T08:04:13.226Z,2965
2016-08-11T08:04:43.558Z,2985
2016-08-11T08:06:43.437Z,2970
2016-08-11T08:07:43.477Z,3030
2016-08-11T08:08:43.357Z,3080
2016-08-11T08:09:43.577Z,3045
2016-08-11T08:10:43.410Z,2990
2016-08-11T08:11:43.406Z,2940
2016-08-11T08:12:43.424Z,2880
2016-08-11T08:13:44.222Z,2835
2016-08-11T08:14:43.460Z,2595
2016-08-11T08:15:43.470Z,2015
2016-08-11T08:16:44.194Z,1775
2016-08-11T08:17:43.516Z,1795
2016-08-11T08:18:43.533Z,835
2016-08-11T08:19:43.546Z,1950
2016-08-11T08:20:43.556Z,1975
2016-08-11T08:21:43.583Z,2045
2016-08-11T08:22:43.592Z,2095
2016-08-11T08:23:43.613Z,2105
2016-08-11T08:24:43.639Z,2180
2016-08-11T08:25:43.640Z,1660
2016-08-11T08:26:43.661Z,465
2016-08-11T08:27:43.674Z,520
2016-08-11T08:28:43.698Z,2160
2016-08-11T08:29:43.703Z,2210
2016-08-11T08:30:44.418Z,2240
2016-08-11T08:31:43.741Z,2310
2016-08-11T08:32:44.466Z,2375
2016-08-11T08:33:43.769Z,2380
2016-08-11T08:34:44.483Z,2340
2016-08-11T08:35:43.793Z,2385
2016-08-11T08:36:43.812Z,2425
2016-08-11T08:37:44.515Z,2420
2016-08-11T08:38:43.830Z,2375
2016-08-11T08:39:43.856Z,1560
2016-08-11T08:40:43.860Z,960
2016-08-11T08:41:43.880Z,1785
2016-08-11T08:42:43.887Z,955
2016-08-11T08:43:43.913Z,675
2016-08-11T08:44:43.915Z,640
2016-08-11T08:45:43.941Z,565
2016-08-11T08:46:43.935Z,550
2016-08-11T08:47:43.960Z,545
2016-08-11T08:48:44.669Z,580
2016-08-11T08:49:43.981Z,650
2016-08-11T08:50:44.687Z,665
2016-08-11T08:51:43.996Z,735
2016-08-11T08:52:44.010Z,800
2016-08-11T08:53:44.033Z,805
2016-08-11T08:54:44.038Z,760
2016-08-11T08:55:44.045Z,715
2016-08-11T08:56:44.063Z,725
2016-08-11T08:57:44.072Z,690
2016-08-11T08:58:44.073Z,650
2016-08-11T08:59:44.085Z,590
2016-08-11T09:00:44.092Z,535
2016-08-11T09:01:44.103Z,485
2016-08-11T09:02:44.114Z,440
2016-08-11T09:03:44.125Z,445
2016-08-11T09:04:44.130Z,490
2016-08-11T09:05:44.155Z,520
2016-08-11T09:06:44.156Z,550
2016-08-11T09:07:44.145Z,575
2016-08-11T09:08:44.159Z,595
2016-08-11T09:09:44.468Z,565
2016-08-11T09:10:59.643Z,565
2016-08-11T09:11:44.934Z,550
2016-08-11T09:12:45.235Z,550
2016-08-11T09:14:44.248Z,625
2016-08-11T09:15:45.753Z,595
2016-08-11T09:16:44.211Z,530
2016-08-11T09:17:44.218Z,510
2016-08-11T09:18:44.322Z,475
2016-08-11T09:20:00.447Z,460
2016-08-11T09:22:00.158Z,455
2016-08-11T09:22:45.250Z,440
2016-08-11T09:23:45.019Z,415
2016-08-11T09:24:44.248Z,460
2016-08-11T09:25:44.874Z,455
2016-08-11T09:26:44.878Z,460
2016-08-11T09:27:44.280Z,470
2016-08-11T09:28:44.284Z,465
2016-08-11T09:29:44.292Z,475
2016-08-11T09:30:44.287Z,495
2016-08-11T09:31:47.585Z,515
2016-08-11T09:33:47.204Z,425
2016-08-11T09:34:47.066Z,430
2016-08-11T09:35:45.691Z,435
2016-08-11T09:36:44.303Z,435
2016-08-11T09:37:44.351Z,460
2016-08-11T09:38:44.524Z,510
2016-08-11T09:39:44.315Z,515
2016-08-11T09:40:47.398Z,490
2016-08-11T09:41:46.218Z,505
2016-08-11T09:42:46.614Z,580
2016-08-11T09:43:46.859Z,655
2016-08-11T09:44:45.887Z,665
2016-08-11T09:45:44.662Z,680
2016-08-11T09:46:45.158Z,710
2016-08-11T09:47:44.951Z,730
2016-08-11T09:48:44.350Z,740
2016-08-11T09:49:44.372Z,760
2016-08-11T09:50:44.371Z,725
2016-08-11T09:51:44.355Z,675
2016-08-11T09:52:44.377Z,590
2016-08-11T09:53:44.401Z,485
2016-08-11T09:54:44.384Z,435
2016-08-11T09:55:44.375Z,405
2016-08-11T09:56:44.380Z,370
2016-08-11T09:57:44.393Z,340
2016-08-11T09:58:44.400Z,330
2016-08-11T09:59:44.389Z,320
2016-08-11T10:00:44.400Z,335
2016-08-11T10:01:44.406Z,340
2016-08-11T10:02:44.417Z,340
2016-08-11T10:03:45.121Z,330
2016-08-11T10:04:44.423Z,325
2016-08-11T10:05:44.422Z,325
2016-08-11T10:06:44.419Z,335
2016-08-11T10:07:44.417Z,345
2016-08-11T10:08:44.428Z,340
2016-08-11T10:09:44.423Z,330
2016-08-11T10:10:45.140Z,330
2016-08-11T10:11:44.432Z,330
2016-08-11T10:12:44.468Z,330
2016-08-11T10:13:44.444Z,325
2016-08-11T10:14:44.439Z,335
2016-08-11T10:15:44.451Z,350
2016-08-11T10:16:44.453Z,380
2016-08-11T10:17:44.449Z,440
2016-08-11T10:18:44.453Z,490
2016-08-11T10:19:44.450Z,490
2016-08-11T10:20:44.449Z,490
2016-08-11T10:21:44.460Z,520
2016-08-11T10:22:44.469Z,545
2016-08-11T10:23:44.459Z,570
2016-08-11T10:24:44.455Z,585
2016-08-11T10:25:44.471Z,585
2016-08-11T10:26:44.471Z,600
2016-08-11T10:27:44.468Z,605
2016-08-11T10:28:59.394Z,595
2016-08-11T10:32:00.052Z,610
2016-08-11T10:32:44.836Z,615
2016-08-11T10:33:44.495Z,620
2016-08-11T10:34:45.045Z,620
2016-08-11T10:35:45.196Z,635
2016-08-11T10:36:45.195Z,625
2016-08-11T10:37:45.200Z,620
2016-08-11T10:38:45.811Z,580
2016-08-11T10:39:45.464Z,570
2016-08-11T10:40:45.723Z,560
2016-08-11T10:42:45.126Z,505
2016-08-11T10:43:44.527Z,465
2016-08-11T10:45:44.529Z,440
2016-08-11T10:46:44.529Z,450
2016-08-11T10:47:44.541Z,415
2016-08-11T10:48:45.225Z,435
2016-08-11T10:49:48.143Z,520
2016-08-11T10:50:47.619Z,605
2016-08-11T10:51:48.324Z,625
2016-08-11T10:52:45.567Z,650
2016-08-11T10:53:46.023Z,615
2016-08-11T10:54:45.038Z,545
2016-08-11T10:55:45.695Z,440
2016-08-11T10:56:45.263Z,375
2016-08-11T10:57:44.582Z,385
2016-08-11T10:58:45.583Z,390
2016-08-11T10:59:46.511Z,390
2016-08-11T11:00:47.782Z,375
2016-08-11T11:01:45.525Z,365
2016-08-11T11:02:46.339Z,355
2016-08-11T11:03:45.666Z,350
2016-08-11T11:04:44.597Z,340
2016-08-11T11:05:44.636Z,305
2016-08-11T11:06:44.615Z,285
2016-08-11T11:07:44.601Z,305
2016-08-11T11:08:44.618Z,320
2016-08-11T11:09:44.711Z,315
2016-08-11T11:10:44.610Z,315
2016-08-11T11:11:44.613Z,320
2016-08-11T11:12:44.615Z,320
2016-08-11T11:13:44.623Z,330
2016-08-11T11:14:44.628Z,365
2016-08-11T11:15:44.628Z,405
2016-08-11T11:16:44.627Z,440
2016-08-11T11:17:44.628Z,485
2016-08-11T11:18:44.624Z,475
2016-08-11T11:19:44.637Z,460
2016-08-11T11:20:44.637Z,425
2016-08-11T11:21:44.644Z,375
2016-08-11T11:22:44.627Z,360
2016-08-11T11:23:44.646Z,375
2016-08-11T11:24:44.637Z,420
2016-08-11T11:25:44.653Z,475
2016-08-11T11:26:44.644Z,500
2016-08-11T11:27:44.655Z,535
2016-08-11T11:28:44.652Z,540
2016-08-11T11:29:44.656Z,540
2016-08-11T11:30:45.349Z,520
2016-08-11T11:31:44.651Z,485
2016-08-11T11:32:44.644Z,460
2016-08-11T11:33:44.676Z,445
2016-08-11T11:34:44.651Z,425
2016-08-11T11:35:44.668Z,395
2016-08-11T11:36:44.661Z,385
2016-08-11T11:37:44.681Z,380
2016-08-11T11:38:44.670Z,380
2016-08-11T11:39:44.669Z,370
2016-08-11T11:40:44.670Z,370
2016-08-11T11:41:44.685Z,375
2016-08-11T11:42:45.372Z,395
2016-08-11T11:43:44.672Z,410
2016-08-11T11:44:44.671Z,395
2016-08-11T11:45:44.676Z,375
2016-08-11T11:46:44.669Z,340
2016-08-11T11:47:45.184Z,310
2016-08-11T11:48:59.601Z,295
2016-08-11T11:49:45.585Z,295
2016-08-11T11:51:00.454Z,290
2016-08-11T11:51:44.682Z,300
2016-08-11T11:52:44.693Z,320
2016-08-11T11:53:44.791Z,345
2016-08-11T11:54:44.696Z,360
2016-08-11T11:55:44.698Z,390
2016-08-11T11:56:45.592Z,430
2016-08-11T11:57:46.913Z,450
2016-08-11T11:58:45.646Z,465
2016-08-11T11:59:44.899Z,510
2016-08-11T12:00:45.398Z,550
2016-08-11T12:01:45.154Z,555
2016-08-11T12:02:44.703Z,545
2016-08-11T12:03:44.705Z,525
2016-08-11T12:04:44.711Z,550
2016-08-11T12:05:44.700Z,565
2016-08-11T12:06:44.713Z,585
2016-08-11T12:07:44.709Z,610
2016-08-11T12:08:47.807Z,615
2016-08-11T12:09:46.157Z,575
2016-08-11T12:10:45.516Z,490
2016-08-11T12:11:45.566Z,415
2016-08-11T12:12:45.338Z,360
2016-08-11T12:13:44.722Z,320
2016-08-11T12:14:45.081Z,290
2016-08-11T12:15:45.435Z,280
2016-08-11T12:16:44.745Z,285
2016-08-11T12:17:46.586Z,280
2016-08-11T12:19:47.345Z,285
2016-08-11T12:20:45.645Z,330
2016-08-11T12:21:45.766Z,380
2016-08-11T12:22:45.362Z,405
2016-08-11T12:23:45.440Z,435
2016-08-11T12:24:44.744Z,455
2016-08-11T12:25:44.751Z,435
2016-08-11T12:26:44.763Z,430
2016-08-11T12:27:44.759Z,480
2016-08-11T12:28:45.434Z,545
2016-08-11T12:29:44.751Z,585
2016-08-11T12:30:44.750Z,590
2016-08-11T12:31:44.762Z,580
2016-08-11T12:32:44.765Z,560
2016-08-11T12:33:44.759Z,530
2016-08-11T12:34:44.783Z,500
2016-08-11T12:35:44.762Z,480
2016-08-11T12:36:44.762Z,470
2016-08-11T12:37:44.761Z,480
2016-08-11T12:38:44.769Z,490
2016-08-11T12:39:44.772Z,495
2016-08-11T12:40:44.773Z,505
2016-08-11T12:41:44.786Z,520
2016-08-11T12:42:44.780Z,525
2016-08-11T12:43:44.779Z,525
2016-08-11T12:44:44.778Z,530
2016-08-11T12:45:44.781Z,535
2016-08-11T12:46:45.478Z,525
2016-08-11T12:47:44.786Z,520
2016-08-11T12:48:45.484Z,530
2016-08-11T12:49:44.793Z,530
2016-08-11T12:50:44.798Z,510
2016-08-11T12:51:44.814Z,465
2016-08-11T12:52:44.801Z,420
2016-08-11T12:53:44.797Z,395
2016-08-11T12:54:44.811Z,395
2016-08-11T12:55:44.817Z,390
2016-08-11T12:56:44.799Z,370
2016-08-11T12:57:44.814Z,375
2016-08-11T12:58:45.508Z,360
2016-08-11T12:59:44.813Z,335
2016-08-11T13:00:44.835Z,315
2016-08-11T13:01:44.840Z,335
2016-08-11T13:02:44.825Z,355
2016-08-11T13:03:44.831Z,375
2016-08-11T13:04:44.831Z,380
2016-08-11T13:05:44.879Z,375
2016-08-11T13:06:46.740Z,385
2016-08-11T13:07:45.894Z,410
2016-08-11T13:09:00.351Z,415
2016-08-11T13:09:45.549Z,430
2016-08-11T13:10:45.239Z,445
2016-08-11T13:11:44.842Z,470
2016-08-11T13:12:44.838Z,470
2016-08-11T13:13:44.850Z,450
2016-08-11T13:15:46.541Z,450
2016-08-11T13:16:45.656Z,465
2016-08-11T13:17:45.552Z,485
2016-08-11T13:18:45.819Z,495
2016-08-11T13:19:44.862Z,525
2016-08-11T13:20:44.863Z,545
2016-08-11T13:21:45.560Z,565
2016-08-11T13:22:44.861Z,565
2016-08-11T13:23:44.869Z,555
2016-08-11T13:24:44.880Z,535
2016-08-11T13:25:44.884Z,520
2016-08-11T13:26:47.989Z,515
2016-08-11T13:27:46.834Z,515
2016-08-11T13:28:46.996Z,515
2016-08-11T13:29:45.531Z,505
2016-08-11T13:30:45.868Z,475
2016-08-11T13:31:45.271Z,455
2016-08-11T13:32:44.909Z,445
2016-08-11T13:33:44.926Z,435
2016-08-11T13:34:44.914Z,435
2016-08-11T13:36:01.652Z,475
2016-08-11T13:37:46.662Z,505
2016-08-11T13:38:45.686Z,525
2016-08-11T13:39:46.402Z,530
2016-08-11T13:40:46.056Z,505
2016-08-11T13:41:45.380Z,495
2016-08-11T13:42:44.924Z,510
2016-08-11T13:43:44.940Z,525
2016-08-11T13:44:44.926Z,530
2016-08-11T13:45:44.943Z,520
2016-08-11T13:46:44.937Z,505
2016-08-11T13:47:44.948Z,495
2016-08-11T13:48:44.939Z,485
2016-08-11T13:49:44.950Z,460
2016-08-11T13:50:44.949Z,460
2016-08-11T13:51:44.957Z,480
2016-08-11T13:52:44.957Z,515
2016-08-11T13:53:44.960Z,540
2016-08-11T13:54:44.979Z,540
2016-08-11T13:55:44.973Z,520
2016-08-11T13:56:44.966Z,520
2016-08-11T13:57:44.975Z,520
2016-08-11T13:58:44.978Z,540
2016-08-11T13:59:44.994Z,560
2016-08-11T14:00:44.980Z,575
2016-08-11T14:01:44.988Z,570
2016-08-11T14:02:44.996Z,565
2016-08-11T14:03:44.998Z,550
2016-08-11T14:04:45.004Z,540
2016-08-11T14:05:45.701Z,550
2016-08-11T14:06:45.009Z,555
2016-08-11T14:07:45.022Z,555
2016-08-11T14:08:45.022Z,550
2016-08-11T14:09:45.021Z,555
2016-08-11T14:10:45.032Z,560
2016-08-11T14:11:45.021Z,560
2016-08-11T14:12:45.054Z,540
2016-08-11T14:13:45.034Z,520
2016-08-11T14:14:45.046Z,495
2016-08-11T14:15:45.042Z,480
2016-08-11T14:16:45.742Z,465
2016-08-11T14:17:45.039Z,450
2016-08-11T14:18:45.056Z,440
2016-08-11T14:19:45.065Z,425
2016-08-11T14:20:45.083Z,410
2016-08-11T14:21:45.067Z,390
2016-08-11T14:22:45.088Z,380
2016-08-11T14:23:45.086Z,375
2016-08-11T14:24:45.075Z,385